Terminal Aerodrome Forecast
Issued by NWS

Home | Current Version | Previous Version | Graphics & Text | Print | Product List | Glossary On
Versions: 1 2 3 4 5 6 7 8 9 10 11 12 13
000
FTUS43 KICT 201128
TAFCNU
TAF
KCNU 201128Z 2012/2112 18012KT P6SM FEW250
     FM201400 19015G25KT P6SM FEW250
     FM210000 19012KT P6SM FEW250=

USA.gov is the U.S. government's official web portal to all federal, state and local government web resources and services.